Time;durP1;ratioP1;P1;durP2;ratioP2;P2;SDS_P1;SDS_P2;PMS_P1;PMS_P2;Temp;Humidity;BMP_temperature;BMP_pressure;BME280_temperature;BME280_humidity;BME280_pressure;Samples;Min_cycle;Max_cycle;Signal;HPM_P1;HPM_P2
2021/07/15 00:01:07;;;;;;;9.20;8.27;;;21.90;75.80;;;;;;5096521;28;20047;-75
2021/07/15 00:03:32;;;;;;;8.48;7.57;;;22.00;75.80;;;;;;5096240;28;20385;-75
2021/07/15 00:05:58;;;;;;;8.27;7.47;;;22.00;75.80;;;;;;5095896;28;20065;-74
2021/07/15 00:08:26;;;;;;;9.65;8.30;;;22.00;75.80;;;;;;5096337;28;20135;-74
2021/07/15 00:10:54;;;;;;;8.68;7.78;;;21.90;75.70;;;;;;5096298;28;20044;-75
2021/07/15 00:13:20;;;;;;;8.77;7.63;;;21.90;75.80;;;;;;5095663;28;20351;-75
2021/07/15 00:15:50;;;;;;;8.68;7.68;;;21.90;75.80;;;;;;5095984;28;20040;-75
2021/07/15 00:18:18;;;;;;;9.23;8.00;;;21.90;75.80;;;;;;5096105;28;20070;-74
2021/07/15 00:20:46;;;;;;;9.07;7.57;;;21.90;75.80;;;;;;5096019;28;20124;-75
2021/07/15 00:23:14;;;;;;;8.88;7.90;;;21.90;75.90;;;;;;5096226;28;20060;-75
2021/07/15 00:25:41;;;;;;;9.38;8.48;;;21.90;75.80;;;;;;5096384;28;20063;-75
2021/07/15 00:28:08;;;;;;;10.10;8.15;;;21.90;75.80;;;;;;5095866;28;20048;-74
2021/07/15 00:30:34;;;;;;;9.05;8.15;;;21.90;75.90;;;;;;5096384;28;20548;-74
2021/07/15 00:33:03;;;;;;;9.10;8.20;;;21.90;75.90;;;;;;5095951;28;20316;-74
2021/07/15 00:35:30;;;;;;;8.77;7.88;;;21.90;75.80;;;;;;5095650;28;20043;-75
2021/07/15 00:37:56;;;;;;;8.68;7.68;;;21.90;75.80;;;;;;5095724;28;20075;-75
2021/07/15 00:40:22;;;;;;;8.57;7.85;;;21.90;75.80;;;;;;5095321;28;20076;-75
2021/07/15 00:42:48;;;;;;;8.35;7.55;;;21.90;75.80;;;;;;5095890;28;20052;-75
2021/07/15 00:45:18;;;;;;;9.07;8.18;;;21.90;75.80;;;;;;5094746;28;20090;-75
2021/07/15 00:47:45;;;;;;;8.45;7.65;;;21.90;75.80;;;;;;5095426;28;20040;-75
2021/07/15 00:50:15;;;;;;;8.82;7.93;;;21.90;75.80;;;;;;5095922;28;20044;-74
2021/07/15 00:52:42;;;;;;;8.85;7.95;;;21.90;75.80;;;;;;5095621;28;20070;-75
2021/07/15 00:55:14;;;;;;;8.63;7.72;;;21.90;75.80;;;;;;5095345;28;20397;-75
2021/07/15 00:57:41;;;;;;;8.75;7.88;;;21.90;75.70;;;;;;5095403;28;20443;-75
2021/07/15 01:00:09;;;;;;;8.88;7.97;;;21.90;75.80;;;;;;5095992;28;20084;-74
2021/07/15 01:02:35;;;;;;;8.50;7.70;;;21.90;75.70;;;;;;5095145;28;20040;-74
2021/07/15 01:05:15;;;;;;;8.70;7.75;;;21.90;75.70;;;;;;5095115;28;20054;-75
2021/07/15 01:07:41;;;;;;;9.15;8.10;;;21.80;75.60;;;;;;5095504;28;20040;-75
2021/07/15 01:10:09;;;;;;;9.27;8.30;;;21.90;75.70;;;;;;5095323;28;20343;-74
2021/07/15 01:13:09;;;;;;;8.75;7.85;;;21.90;75.70;;;;;;5096104;28;20040;-74
2021/07/15 01:15:41;;;;;;;8.80;8.00;;;21.90;75.60;;;;;;5095353;28;20036;-75
2021/07/15 01:18:37;;;;;;;8.88;8.07;;;21.90;75.70;;;;;;5095250;28;20165;-74
2021/07/15 01:21:43;;;;;;;8.93;8.05;;;21.90;75.70;;;;;;5095225;28;20044;-75
2021/07/15 01:24:25;;;;;;;8.75;7.85;;;21.90;75.70;;;;;;5095275;28;20048;-74
2021/07/15 01:26:54;;;;;;;8.57;7.68;;;21.80;75.70;;;;;;5095265;28;20061;-75
2021/07/15 01:30:08;;;;;;;8.57;7.82;;;21.80;75.80;;;;;;5095007;28;20044;-75
2021/07/15 01:32:45;;;;;;;9.75;8.18;;;21.90;75.70;;;;;;5061520;28;20056;-74
2021/07/15 01:35:15;;;;;;;8.38;7.47;;;21.80;75.80;;;;;;5095131;28;20051;-75
2021/07/15 01:37:48;;;;;;;8.75;7.75;;;21.80;75.80;;;;;;5095412;28;20488;-74
2021/07/15 01:40:18;;;;;;;9.43;8.35;;;21.80;75.80;;;;;;5094993;28;20040;-75
2021/07/15 01:42:48;;;;;;;9.18;8.27;;;21.80;75.80;;;;;;5095106;28;20037;-74
2021/07/15 01:45:14;;;;;;;9.27;8.10;;;21.80;75.70;;;;;;5095211;28;20074;-74
2021/07/15 01:47:40;;;;;;;8.77;7.88;;;21.80;75.70;;;;;;5094954;28;20055;-75
2021/07/15 01:50:07;;;;;;;8.52;7.60;;;21.80;75.70;;;;;;5095157;28;20044;-74
2021/07/15 01:52:34;;;;;;;8.43;7.63;;;21.80;75.70;;;;;;5094938;28;20047;-74
2021/07/15 01:55:00;;;;;;;9.35;8.32;;;21.80;75.70;;;;;;5095107;28;20180;-74
2021/07/15 01:57:28;;;;;;;8.95;8.05;;;21.80;75.70;;;;;;5096393;28;20040;-74
2021/07/15 01:59:57;;;;;;;8.20;7.40;;;21.80;75.70;;;;;;5099268;28;20047;-75
2021/07/15 02:02:25;;;;;;;8.60;7.70;;;21.80;75.70;;;;;;5098693;28;20046;-74
2021/07/15 02:04:54;;;;;;;9.15;8.20;;;21.80;75.70;;;;;;5098859;28;20040;-74
2021/07/15 02:07:22;;;;;;;7.95;7.10;;;21.80;75.70;;;;;;5098258;28;20119;-74
2021/07/15 02:09:50;;;;;;;10.38;8.82;;;21.80;75.60;;;;;;5098422;28;20040;-74
2021/07/15 02:12:19;;;;;;;9.10;7.75;;;21.80;75.70;;;;;;5098455;28;20499;-75
2021/07/15 02:14:47;;;;;;;8.55;7.65;;;21.80;75.60;;;;;;5098353;28;20032;-74
2021/07/15 02:17:13;;;;;;;8.25;7.35;;;21.80;75.60;;;;;;5080482;28;20039;-75
2021/07/15 02:19:42;;;;;;;8.48;7.68;;;21.80;75.60;;;;;;5098953;28;20044;-74
2021/07/15 02:22:11;;;;;;;9.13;7.97;;;21.80;75.60;;;;;;5098239;28;20169;-75
2021/07/15 02:24:39;;;;;;;9.68;8.35;;;21.80;75.60;;;;;;5098148;28;20410;-74
2021/07/15 02:27:06;;;;;;;10.15;7.78;;;21.80;75.60;;;;;;5097986;28;20059;-74
2021/07/15 02:29:33;;;;;;;10.23;8.23;;;21.80;75.60;;;;;;5097856;28;20032;-74
2021/07/15 02:32:07;;;;;;;9.15;7.68;;;21.80;75.60;;;;;;5098016;28;20036;-75
2021/07/15 02:34:42;;;;;;;8.35;7.53;;;21.80;75.60;;;;;;5098234;28;20078;-74
2021/07/15 02:37:11;;;;;;;9.10;8.13;;;21.80;75.60;;;;;;5097989;28;20051;-74
2021/07/15 02:39:37;;;;;;;9.52;7.97;;;21.80;75.60;;;;;;5097662;28;20403;-74
2021/07/15 02:42:04;;;;;;;10.10;7.95;;;21.70;75.60;;;;;;5097633;28;20040;-74
2021/07/15 02:44:30;;;;;;;9.10;8.20;;;21.80;75.60;;;;;;5097899;28;20074;-75
2021/07/15 02:46:56;;;;;;;9.10;8.20;;;21.80;75.60;;;;;;5097724;28;20438;-74
2021/07/15 02:49:22;;;;;;;9.82;8.25;;;21.80;75.60;;;;;;5098032;28;20032;-74
2021/07/15 02:51:48;;;;;;;9.75;8.55;;;21.80;75.60;;;;;;5097607;28;20044;-74
2021/07/15 02:54:15;;;;;;;9.07;7.07;;;21.80;75.60;;;;;;5097406;28;20320;-74
2021/07/15 02:57:05;;;;;;;8.55;7.63;;;21.70;75.50;;;;;;5097562;28;20400;-74
2021/07/15 02:59:47;;;;;;;9.00;7.47;;;21.80;75.60;;;;;;5097330;28;20036;-74
2021/07/15 03:02:20;;;;;;;8.55;7.43;;;21.80;75.50;;;;;;5097707;28;20044;-74
2021/07/15 03:04:57;;;;;;;8.60;7.70;;;21.70;75.50;;;;;;5097637;28;20047;-74
2021/07/15 03:07:25;;;;;;;10.77;8.02;;;21.80;75.60;;;;;;5096742;28;20470;-75
2021/07/15 03:09:53;;;;;;;10.00;8.15;;;21.80;75.60;;;;;;5097461;28;20048;-74
2021/07/15 03:12:24;;;;;;;10.05;8.10;;;21.80;75.60;;;;;;5096963;28;20064;-74
2021/07/15 03:14:53;;;;;;;9.85;7.97;;;21.70;75.50;;;;;;5097634;28;20067;-74
2021/07/15 03:17:29;;;;;;;9.15;8.02;;;21.70;75.50;;;;;;5096616;28;20044;-74
2021/07/15 03:19:59;;;;;;;9.65;8.60;;;21.80;75.50;;;;;;5097862;28;20043;-74
2021/07/15 03:22:26;;;;;;;8.77;7.88;;;21.70;75.50;;;;;;5097286;28;20051;-74
2021/07/15 03:24:59;;;;;;;9.07;7.30;;;21.70;75.50;;;;;;5096635;28;20506;-74
2021/07/15 03:27:27;;;;;;;10.13;7.50;;;21.70;75.50;;;;;;5096989;28;20044;-74
2021/07/15 03:29:55;;;;;;;8.55;7.65;;;21.70;75.50;;;;;;5096954;28;20062;-74
2021/07/15 03:32:23;;;;;;;8.30;7.40;;;21.70;75.50;;;;;;5097558;28;20114;-74
2021/07/15 03:34:50;;;;;;;9.50;7.55;;;21.70;75.50;;;;;;5096880;28;20046;-73
2021/07/15 03:37:16;;;;;;;8.85;7.90;;;21.70;75.40;;;;;;5096986;28;20093;-74
2021/07/15 03:39:45;;;;;;;8.55;7.65;;;21.70;75.50;;;;;;5096882;28;20048;-74
2021/07/15 03:42:11;;;;;;;9.05;7.82;;;21.70;75.50;;;;;;5096622;28;20084;-74
2021/07/15 03:44:39;;;;;;;8.65;7.60;;;21.70;75.50;;;;;;5096180;28;20036;-75
2021/07/15 03:47:05;;;;;;;8.05;7.20;;;21.70;75.50;;;;;;5097192;28;20040;-75
2021/07/15 03:49:32;;;;;;;8.15;7.35;;;21.70;75.50;;;;;;5096242;28;20043;-74
2021/07/15 03:51:59;;;;;;;9.65;7.30;;;21.70;75.50;;;;;;5096573;28;20104;-74
2021/07/15 03:54:26;;;;;;;8.93;6.93;;;21.70;75.50;;;;;;5095734;28;20048;-74
2021/07/15 03:56:53;;;;;;;9.88;7.05;;;21.70;75.50;;;;;;5097007;28;20036;-74
2021/07/15 03:59:20;;;;;;;8.82;7.68;;;21.70;75.50;;;;;;5096514;28;20458;-74
2021/07/15 04:01:57;;;;;;;8.52;7.35;;;21.70;75.50;;;;;;5096283;28;20044;-74
2021/07/15 04:04:27;;;;;;;8.65;7.25;;;21.70;75.40;;;;;;5096102;28;20036;-74
2021/07/15 04:06:54;;;;;;;9.13;7.60;;;21.70;75.40;;;;;;5096368;28;20101;-74
2021/07/15 04:09:21;;;;;;;8.50;7.60;;;21.70;75.40;;;;;;5096062;28;20061;-74
2021/07/15 04:11:47;;;;;;;10.35;7.55;;;21.70;75.40;;;;;;5096211;28;20047;-74
2021/07/15 04:14:23;;;;;;;8.90;7.07;;;21.70;75.40;;;;;;5096727;28;20036;-75
2021/07/15 04:17:05;;;;;;;7.90;7.03;;;21.70;75.40;;;;;;5095789;28;20048;-74
2021/07/15 04:19:33;;;;;;;9.70;7.10;;;21.70;75.40;;;;;;5095382;28;20039;-74
2021/07/15 04:21:59;;;;;;;8.95;7.60;;;21.70;75.40;;;;;;5096207;28;20143;-74
2021/07/15 04:24:25;;;;;;;7.70;6.82;;;21.70;75.40;;;;;;5096678;28;20036;-74
2021/07/15 04:26:54;;;;;;;7.15;6.00;;;21.70;75.40;;;;;;5096018;28;20492;-74
2021/07/15 04:29:21;;;;;;;10.20;7.15;;;21.60;75.30;;;;;;5096019;28;20036;-74
2021/07/15 04:32:22;;;;;;;8.73;7.35;;;21.70;75.40;;;;;;5095768;28;20167;-74
2021/07/15 04:34:49;;;;;;;9.70;7.30;;;21.70;75.30;;;;;;5095656;28;20450;-74
2021/07/15 04:37:17;;;;;;;7.60;6.72;;;21.70;75.40;;;;;;5095615;28;20130;-75
2021/07/15 04:39:44;;;;;;;10.35;7.13;;;21.70;75.40;;;;;;5095523;28;20054;-74
2021/07/15 04:42:11;;;;;;;8.57;7.07;;;21.70;75.40;;;;;;5096222;28;20047;-74
2021/07/15 04:44:39;;;;;;;8.27;7.13;;;21.70;75.40;;;;;;5095823;28;20119;-74
2021/07/15 04:47:07;;;;;;;8.80;6.97;;;21.60;75.30;;;;;;5095853;28;20040;-73
2021/07/15 04:49:33;;;;;;;9.85;7.32;;;21.70;75.40;;;;;;5095477;28;20465;-73
2021/07/15 04:52:01;;;;;;;8.68;6.65;;;21.70;75.40;;;;;;5095324;28;20043;-74
2021/07/15 04:54:27;;;;;;;9.93;7.10;;;21.70;75.40;;;;;;5094744;28;20044;-74
2021/07/15 04:56:54;;;;;;;9.45;6.72;;;21.70;75.40;;;;;;5095117;28;20113;-74
2021/07/15 04:59:20;;;;;;;6.82;6.13;;;21.60;75.30;;;;;;5095491;28;20059;-75
2021/07/15 05:01:46;;;;;;;11.13;7.30;;;21.60;75.30;;;;;;5095401;28;20514;-74
2021/07/15 05:04:12;;;;;;;8.02;7.10;;;21.60;75.30;;;;;;5095525;28;20115;-74
2021/07/15 05:06:38;;;;;;;8.75;6.25;;;21.60;75.30;;;;;;5095854;28;20040;-74
2021/07/15 05:09:04;;;;;;;8.23;6.63;;;21.60;75.30;;;;;;5095568;28;20071;-74
2021/07/15 05:11:33;;;;;;;8.65;7.05;;;21.70;75.40;;;;;;5095066;28;20372;-74
2021/07/15 05:14:01;;;;;;;9.30;6.40;;;21.60;75.30;;;;;;5095542;28;20399;-74
2021/07/15 05:16:26;;;;;;;9.60;6.40;;;21.60;75.30;;;;;;5095223;28;20028;-74
2021/07/15 05:18:52;;;;;;;6.55;5.85;;;21.60;75.30;;;;;;5077821;28;20483;-74
2021/07/15 05:21:18;;;;;;;8.85;6.50;;;21.60;75.30;;;;;;5095037;28;20040;-74
2021/07/15 05:23:44;;;;;;;8.50;6.25;;;21.60;75.30;;;;;;5094930;28;20397;-74
2021/07/15 05:26:10;;;;;;;7.22;6.18;;;21.60;75.30;;;;;;5094979;28;20040;-73
2021/07/15 05:28:36;;;;;;;7.80;6.07;;;21.60;75.30;;;;;;5095211;28;20490;-74
2021/07/15 05:31:02;;;;;;;9.07;6.72;;;21.60;75.30;;;;;;5096202;28;20077;-73
2021/07/15 05:33:28;;;;;;;8.45;6.30;;;21.60;75.30;;;;;;5099141;28;20040;-74
2021/07/15 05:35:54;;;;;;;7.93;6.25;;;21.60;75.20;;;;;;5098959;28;20044;-75
2021/07/15 05:38:20;;;;;;;8.95;6.72;;;21.60;75.20;;;;;;5099339;28;20402;-74
2021/07/15 05:40:45;;;;;;;10.50;7.22;;;21.60;75.30;;;;;;5098949;28;20046;-74
2021/07/15 05:43:11;;;;;;;7.78;6.60;;;21.60;75.30;;;;;;5098913;28;20054;-74
2021/07/15 05:45:37;;;;;;;8.10;6.20;;;21.60;75.20;;;;;;5099026;28;20048;-74
2021/07/15 05:48:03;;;;;;;8.48;6.00;;;21.60;75.20;;;;;;5099084;28;20046;-75
2021/07/15 05:50:29;;;;;;;7.88;6.05;;;21.60;75.20;;;;;;5099546;28;20047;-74
2021/07/15 05:52:55;;;;;;;8.48;6.72;;;21.60;75.20;;;;;;5098230;28;20040;-74
2021/07/15 05:55:21;;;;;;;8.25;6.22;;;21.60;75.20;;;;;;5098138;28;20131;-74
2021/07/15 05:57:46;;;;;;;8.90;5.90;;;21.60;75.20;;;;;;5098521;28;20427;-74
2021/07/15 06:00:14;;;;;;;8.23;5.82;;;21.60;75.20;;;;;;5098613;28;20044;-74
2021/07/15 06:02:40;;;;;;;7.60;5.60;;;21.60;75.30;;;;;;5099358;28;20040;-75
2021/07/15 06:05:06;;;;;;;9.38;6.47;;;21.60;75.30;;;;;;5098595;28;20032;-74
2021/07/15 06:07:32;;;;;;;8.68;6.30;;;21.60;75.20;;;;;;5098033;28;20401;-73
2021/07/15 06:09:58;;;;;;;10.65;6.05;;;21.60;75.20;;;;;;5080633;28;20040;-74
2021/07/15 06:12:24;;;;;;;8.93;5.72;;;21.60;75.20;;;;;;5098188;28;20383;-74
2021/07/15 06:14:50;;;;;;;7.68;5.97;;;21.60;75.20;;;;;;5098270;28;20105;-73
2021/07/15 06:17:16;;;;;;;9.30;6.35;;;21.60;75.20;;;;;;5098479;28;20415;-74
2021/07/15 06:19:42;;;;;;;8.25;5.95;;;21.60;75.20;;;;;;5098855;28;20354;-74
2021/07/15 06:22:08;;;;;;;7.18;5.90;;;21.60;75.20;;;;;;5098023;28;20048;-73
2021/07/15 06:24:33;;;;;;;9.75;6.80;;;21.60;75.20;;;;;;5098127;28;20450;-74
2021/07/15 06:26:59;;;;;;;8.32;5.88;;;21.60;75.20;;;;;;5098192;28;20316;-73
2021/07/15 06:29:26;;;;;;;7.70;5.90;;;21.60;75.20;;;;;;5098025;28;20449;-74
2021/07/15 06:31:52;;;;;;;7.47;5.20;;;21.60;75.20;;;;;;5080245;28;20101;-74
2021/07/15 06:34:18;;;;;;;7.57;5.47;;;21.60;75.20;;;;;;5098031;28;20051;-74
2021/07/15 06:36:46;;;;;;;9.32;5.47;;;21.60;75.20;;;;;;5098067;28;20040;-74
2021/07/15 06:39:12;;;;;;;7.75;5.88;;;21.60;75.20;;;;;;5098182;28;20040;-74
2021/07/15 06:41:39;;;;;;;10.32;5.68;;;21.60;75.20;;;;;;5098382;28;20109;-73
2021/07/15 06:44:05;;;;;;;11.07;5.88;;;21.60;75.20;;;;;;5097240;28;20332;-74
2021/07/15 06:46:33;;;;;;;7.20;4.85;;;21.50;75.20;;;;;;5097651;28;20462;-74
2021/07/15 06:49:00;;;;;;;7.80;5.65;;;21.60;75.20;;;;;;5098531;28;20074;-73
2021/07/15 06:51:26;;;;;;;8.00;5.55;;;21.60;75.20;;;;;;5097586;28;20059;-74
2021/07/15 06:53:53;;;;;;;7.68;6.32;;;21.60;75.20;;;;;;5097032;28;20052;-73
2021/07/15 06:56:19;;;;;;;9.65;5.78;;;21.60;75.10;;;;;;5097133;28;20474;-73
2021/07/15 06:58:45;;;;;;;7.13;5.95;;;21.50;75.10;;;;;;5097668;28;20044;-74
2021/07/15 07:01:12;;;;;;;7.65;5.47;;;21.60;75.10;;;;;;5097715;28;20444;-73
2021/07/15 07:03:37;;;;;;;9.13;5.85;;;21.60;75.20;;;;;;5097678;28;20071;-74
2021/07/15 07:06:04;;;;;;;6.97;5.45;;;21.50;75.10;;;;;;5097667;28;20067;-73
2021/07/15 07:08:29;;;;;;;7.57;5.43;;;21.50;75.10;;;;;;5096991;28;20044;-73
2021/07/15 07:10:55;;;;;;;7.30;5.32;;;21.60;75.10;;;;;;5097334;28;20039;-73
2021/07/15 07:13:21;;;;;;;8.60;5.93;;;21.60;75.10;;;;;;5097113;28;20431;-73
2021/07/15 07:15:47;;;;;;;7.60;5.57;;;21.50;75.10;;;;;;5097400;28;20067;-73
2021/07/15 07:18:13;;;;;;;8.82;5.75;;;21.60;75.10;;;;;;5097414;28;20124;-73
2021/07/15 07:20:39;;;;;;;7.32;5.22;;;21.50;75.10;;;;;;5096737;28;20429;-73
2021/07/15 07:23:05;;;;;;;7.38;5.82;;;21.50;75.10;;;;;;5097201;28;20040;-74
2021/07/15 07:25:31;;;;;;;7.55;5.32;;;21.50;75.10;;;;;;5097430;28;20036;-73
2021/07/15 07:27:57;;;;;;;8.25;5.50;;;21.60;75.10;;;;;;5097033;28;20047;-74
2021/07/15 07:30:23;;;;;;;7.35;5.38;;;21.50;75.10;;;;;;5096746;28;20115;-74
2021/07/15 07:32:50;;;;;;;7.65;5.22;;;21.50;75.10;;;;;;5097052;28;20048;-73
2021/07/15 07:35:16;;;;;;;7.40;5.40;;;21.60;75.20;;;;;;5096403;28;20415;-73
2021/07/15 07:37:43;;;;;;;7.47;4.97;;;21.50;75.10;;;;;;5096712;28;20035;-74
2021/07/15 07:40:10;;;;;;;8.15;5.22;;;21.50;75.10;;;;;;5096622;28;20465;-73
2021/07/15 07:42:37;;;;;;;8.60;5.70;;;21.50;75.10;;;;;;5096910;28;20046;-73
2021/07/15 07:45:05;;;;;;;9.63;5.38;;;21.50;75.10;;;;;;5095957;28;20503;-73
2021/07/15 07:47:31;;;;;;;6.63;5.15;;;21.50;75.00;;;;;;5096799;28;20044;-73
2021/07/15 07:49:57;;;;;;;7.38;5.47;;;21.50;75.00;;;;;;5096464;28;20040;-73
2021/07/15 07:52:23;;;;;;;6.03;5.00;;;21.50;75.10;;;;;;5096588;28;20064;-73
2021/07/15 07:54:49;;;;;;;6.45;4.93;;;21.50;75.10;;;;;;5094847;28;20055;-73
2021/07/15 07:57:14;;;;;;;7.47;5.32;;;21.50;75.20;;;;;;5096264;28;20123;-73
2021/07/15 07:59:40;;;;;;;7.10;4.97;;;21.50;75.10;;;;;;5096214;28;20044;-73
2021/07/15 08:02:07;;;;;;;7.43;4.68;;;21.50;75.10;;;;;;5096407;28;20044;-74
2021/07/15 08:04:33;;;;;;;6.82;5.30;;;21.50;75.00;;;;;;5096428;28;20036;-74
2021/07/15 08:06:59;;;;;;;7.75;4.90;;;21.50;75.00;;;;;;5096792;28;20059;-73
2021/07/15 08:09:26;;;;;;;6.07;4.95;;;21.50;75.00;;;;;;5096264;28;20093;-73
2021/07/15 08:11:54;;;;;;;6.60;5.03;;;21.50;75.00;;;;;;5096197;28;20052;-73
2021/07/15 08:14:21;;;;;;;7.13;5.13;;;21.50;75.00;;;;;;5096121;28;20399;-73
2021/07/15 08:16:47;;;;;;;6.88;5.30;;;21.50;75.00;;;;;;5096350;28;20143;-73
2021/07/15 08:19:13;;;;;;;7.75;5.40;;;21.50;75.10;;;;;;5096061;28;20123;-73
2021/07/15 08:21:39;;;;;;;7.18;4.88;;;21.50;75.10;;;;;;5095438;28;20048;-73
2021/07/15 08:24:05;;;;;;;7.82;5.20;;;21.50;75.10;;;;;;5095945;28;20047;-73
2021/07/15 08:26:31;;;;;;;7.85;4.90;;;21.50;75.10;;;;;;5095966;28;20048;-73
2021/07/15 08:28:57;;;;;;;8.48;5.10;;;21.50;75.10;;;;;;5095944;28;20044;-74
2021/07/15 08:31:24;;;;;;;9.57;5.07;;;21.50;75.10;;;;;;5095620;28;20160;-73
2021/07/15 08:33:50;;;;;;;6.78;4.82;;;21.50;75.00;;;;;;5096011;28;20116;-73
2021/07/15 08:36:16;;;;;;;6.78;4.88;;;21.50;75.10;;;;;;5095915;28;20056;-73
2021/07/15 08:38:42;;;;;;;8.05;5.20;;;21.50;75.00;;;;;;5095607;28;20127;-73
2021/07/15 08:41:08;;;;;;;7.22;5.18;;;21.50;75.00;;;;;;5095911;28;20458;-73
2021/07/15 08:43:37;;;;;;;6.22;5.05;;;21.50;75.00;;;;;;5095771;28;20094;-73
2021/07/15 08:46:05;;;;;;;7.00;4.88;;;21.50;75.00;;;;;;5095978;28;20032;-72
2021/07/15 08:48:33;;;;;;;7.30;4.88;;;21.50;75.00;;;;;;5095739;28;20063;-73
2021/07/15 08:50:59;;;;;;;6.85;5.00;;;21.50;75.00;;;;;;5095465;28;20397;-73
2021/07/15 08:53:27;;;;;;;6.07;4.40;;;21.50;75.00;;;;;;5095559;28;20439;-73
2021/07/15 08:58:40;;;;;;;6.60;4.93;;;21.50;74.90;;;;;;5095307;28;20050;-73
2021/07/15 09:01:06;;;;;;;7.45;4.93;;;21.50;74.90;;;;;;5095407;28;20482;-73
2021/07/15 09:03:36;;;;;;;5.57;4.53;;;21.50;74.90;;;;;;5095337;28;20036;-72
2021/07/15 09:06:02;;;;;;;7.35;4.65;;;21.50;74.90;;;;;;5095287;28;20419;-73
2021/07/15 09:08:32;;;;;;;7.47;4.13;;;21.50;75.00;;;;;;5095263;28;20044;-73
2021/07/15 09:11:04;;;;;;;5.82;4.43;;;21.50;74.90;;;;;;5094963;28;20056;-73
2021/07/15 09:13:30;;;;;;;8.98;4.80;;;21.50;74.90;;;;;;5095074;28;20119;-73
2021/07/15 09:15:56;;;;;;;5.65;4.40;;;21.50;75.00;;;;;;5095100;28;20072;-73
2021/07/15 09:18:22;;;;;;;6.47;4.55;;;21.50;74.90;;;;;;5095509;28;20079;-73
2021/07/15 09:20:48;;;;;;;6.82;4.78;;;21.50;74.90;;;;;;5095255;28;20051;-73
2021/07/15 09:23:15;;;;;;;5.88;4.65;;;21.50;74.90;;;;;;5095424;28;20040;-73
2021/07/15 09:25:41;;;;;;;7.53;4.70;;;21.50;74.90;;;;;;5095411;28;20040;-73
2021/07/15 09:28:12;;;;;;;6.50;4.70;;;21.50;75.00;;;;;;5094823;28;20189;-73
2021/07/15 09:30:39;;;;;;;5.43;4.65;;;21.50;74.90;;;;;;5095391;28;20044;-74
2021/07/15 09:33:08;;;;;;;7.43;4.78;;;21.50;74.90;;;;;;5095189;28;20513;-73
2021/07/15 09:35:39;;;;;;;6.28;4.80;;;21.50;74.90;;;;;;5094735;28;20047;-73
2021/07/15 09:38:22;;;;;;;5.40;4.13;;;21.50;74.90;;;;;;5095062;28;20127;-73
2021/07/15 09:40:57;;;;;;;6.18;4.43;;;21.50;74.90;;;;;;5094938;28;20047;-73
2021/07/15 09:43:24;;;;;;;6.90;4.38;;;21.50;74.90;;;;;;5095122;28;20166;-72
2021/07/15 09:45:53;;;;;;;5.97;4.60;;;21.50;75.00;;;;;;5095251;28;20044;-73
2021/07/15 09:48:22;;;;;;;7.80;4.60;;;21.50;75.00;;;;;;5094805;28;20051;-73
2021/07/15 09:50:49;;;;;;;6.03;4.65;;;21.50;74.90;;;;;;5094833;28;20127;-72
2021/07/15 09:53:26;;;;;;;5.97;3.97;;;21.50;75.00;;;;;;5094772;28;20435;-72
2021/07/15 09:56:16;;;;;;;8.57;4.97;;;21.50;74.90;;;;;;5094836;28;20055;-73
2021/07/15 09:58:50;;;;;;;7.90;4.63;;;21.50;74.90;;;;;;5094898;28;20116;-73
2021/07/15 10:01:19;;;;;;;6.72;4.63;;;21.50;74.90;;;;;;5076885;28;20044;-73
2021/07/15 10:03:50;;;;;;;7.43;4.97;;;21.50;74.90;;;;;;5094703;28;20133;-73
2021/07/15 10:06:18;;;;;;;5.32;4.57;;;21.50;75.00;;;;;;5094908;28;20046;-73
2021/07/15 10:08:46;;;;;;;8.52;4.75;;;21.50;75.00;;;;;;5094911;28;20446;-73
2021/07/15 10:11:12;;;;;;;6.68;4.18;;;21.50;75.00;;;;;;5094754;28;20062;-73
2021/07/15 10:13:39;;;;;;;6.07;4.45;;;21.50;75.00;;;;;;5094664;28;20437;-73
2021/07/15 10:16:07;;;;;;;4.97;4.28;;;21.50;75.00;;;;;;5095134;28;20040;-73
2021/07/15 10:18:44;;;;;;;7.00;4.20;;;21.50;75.00;;;;;;5096187;28;20048;-73
2021/07/15 10:21:14;;;;;;;6.15;4.68;;;21.50;75.00;;;;;;5098165;28;20036;-73
2021/07/15 10:23:45;;;;;;;6.15;4.40;;;21.50;75.00;;;;;;5098199;28;20052;-72
2021/07/15 10:26:12;;;;;;;8.70;4.95;;;21.50;75.00;;;;;;5097852;28;20115;-73
2021/07/15 10:28:43;;;;;;;6.90;4.43;;;21.50;75.00;;;;;;5098082;28;20040;-73
2021/07/15 10:31:09;;;;;;;7.15;4.18;;;21.50;74.90;;;;;;5098250;28;20048;-73
2021/07/15 10:33:36;;;;;;;5.28;4.15;;;21.60;75.00;;;;;;5097970;28;20060;-73
2021/07/15 10:36:05;;;;;;;7.40;4.90;;;21.60;75.00;;;;;;5097868;28;20040;-73
2021/07/15 10:38:39;;;;;;;8.05;4.60;;;21.50;75.00;;;;;;5097770;28;20321;-72
2021/07/15 10:41:06;;;;;;;5.25;4.25;;;21.60;75.00;;;;;;5097896;28;20068;-73
2021/07/15 10:43:33;;;;;;;8.45;4.75;;;21.50;75.00;;;;;;5097848;28;20048;-73
2021/07/15 10:46:02;;;;;;;5.43;4.38;;;21.50;75.00;;;;;;5097921;28;20036;-73
2021/07/15 10:48:29;;;;;;;4.63;4.03;;;21.60;75.10;;;;;;5098409;28;20048;-72
2021/07/15 10:50:55;;;;;;;5.00;4.45;;;21.60;75.10;;;;;;5097481;28;20043;-73
2021/07/15 10:53:22;;;;;;;5.57;4.55;;;21.60;75.10;;;;;;5097346;28;20040;-72
2021/07/15 10:55:53;;;;;;;6.55;4.57;;;21.50;75.00;;;;;;5097483;28;20409;-73
2021/07/15 10:58:45;;;;;;;7.28;4.20;;;21.60;75.10;;;;;;5097636;28;20032;-72
2021/07/15 11:04:08;;;;;;;5.30;4.05;;;21.60;75.10;;;;;;5097801;28;20066;-73
2021/07/15 11:06:37;;;;;;;6.20;4.25;;;21.60;75.10;;;;;;5098002;28;20036;-73
2021/07/15 11:09:03;;;;;;;6.93;4.88;;;21.60;75.10;;;;;;5097981;28;20048;-73
2021/07/15 11:11:37;;;;;;;7.03;4.22;;;21.50;75.00;;;;;;5097399;28;20374;-73
2021/07/15 11:14:04;;;;;;;5.50;4.35;;;21.60;75.10;;;;;;5097432;28;20040;-73
2021/07/15 11:16:49;;;;;;;6.07;4.32;;;21.60;75.10;;;;;;5097185;28;20494;-72
2021/07/15 11:19:54;;;;;;;6.18;4.25;;;21.60;75.00;;;;;;5097380;28;20070;-73
2021/07/15 11:22:38;;;;;;;5.15;4.30;;;21.60;75.10;;;;;;5096840;28;20044;-73
2021/07/15 11:25:10;;;;;;;6.65;4.40;;;21.60;75.10;;;;;;5097235;28;20040;-72
2021/07/15 11:27:48;;;;;;;6.80;3.92;;;21.60;75.10;;;;;;5097657;28;20040;-72
2021/07/15 11:30:26;;;;;;;5.93;4.10;;;21.60;75.10;;;;;;5097616;28;20047;-73
2021/07/15 11:32:52;;;;;;;6.75;4.35;;;21.60;75.10;;;;;;5096454;28;20390;-72
2021/07/15 11:35:31;;;;;;;6.43;4.25;;;21.60;75.10;;;;;;5096567;28;20127;-73
2021/07/15 11:38:12;;;;;;;7.47;4.78;;;21.60;75.10;;;;;;5096598;28;20039;-72
2021/07/15 11:40:38;;;;;;;7.95;4.30;;;21.60;75.10;;;;;;5096860;28;20127;-74
2021/07/15 11:43:20;;;;;;;8.68;4.32;;;21.60;75.10;;;;;;5097425;28;20430;-73
2021/07/15 11:46:38;;;;;;;5.57;4.05;;;21.60;75.00;;;;;;5096352;28;20040;-73
2021/07/15 11:49:18;;;;;;;6.57;4.25;;;21.60;75.00;;;;;;5040629;28;20134;-73
2021/07/15 11:51:50;;;;;;;6.55;3.88;;;21.60;75.10;;;;;;5096381;28;20043;-73
2021/07/15 11:54:30;;;;;;;7.35;4.40;;;21.60;75.10;;;;;;5095967;28;20396;-72
2021/07/15 11:57:01;;;;;;;7.10;4.50;;;21.60;75.10;;;;;;5096536;28;20040;-73
2021/07/15 11:59:46;;;;;;;6.20;4.03;;;21.60;75.00;;;;;;5096433;28;20426;-74
2021/07/15 12:02:24;;;;;;;5.50;4.35;;;21.60;74.90;;;;;;5095860;28;20115;-73
2021/07/15 12:05:29;;;;;;;5.75;4.25;;;21.60;75.00;;;;;;5096232;28;20032;-72
2021/07/15 12:08:13;;;;;;;6.10;3.92;;;21.60;74.90;;;;;;5096487;28;20341;-72
2021/07/15 12:10:53;;;;;;;7.13;4.20;;;21.60;74.90;;;;;;5096495;28;20108;-72
2021/07/15 12:13:19;;;;;;;4.88;3.92;;;21.60;74.90;;;;;;5095986;28;20040;-73
2021/07/15 12:15:47;;;;;;;6.07;3.97;;;21.60;75.00;;;;;;5096041;28;20050;-72
2021/07/15 12:18:21;;;;;;;6.10;4.40;;;21.60;75.10;;;;;;5096265;28;20040;-72
2021/07/15 12:20:58;;;;;;;5.63;4.25;;;21.60;75.10;;;;;;5095835;28;20096;-73
2021/07/15 12:23:34;;;;;;;7.38;4.40;;;21.60;75.10;;;;;;5096300;28;20316;-72
2021/07/15 12:26:03;;;;;;;5.13;4.22;;;21.60;75.10;;;;;;5095830;28;20323;-72
2021/07/15 12:28:29;;;;;;;6.30;4.43;;;21.60;75.10;;;;;;5095991;28;20058;-73
2021/07/15 12:31:12;;;;;;;5.95;4.30;;;21.60;75.10;;;;;;5095996;28;20044;-72
2021/07/15 12:33:43;;;;;;;5.80;4.50;;;21.60;75.10;;;;;;5095987;28;20043;-72
2021/07/15 12:36:25;;;;;;;6.35;4.55;;;21.60;75.10;;;;;;5096241;28;20124;-73
2021/07/15 12:39:00;;;;;;;7.28;4.10;;;21.60;75.10;;;;;;5095730;28;20468;-73
2021/07/15 12:41:31;;;;;;;5.40;4.25;;;21.60;75.10;;;;;;5095275;28;20044;-73
2021/07/15 12:44:04;;;;;;;4.55;3.75;;;21.60;75.10;;;;;;5095999;28;20043;-73
2021/07/15 12:46:35;;;;;;;6.05;4.07;;;21.60;75.00;;;;;;5095940;28;20070;-73
2021/07/15 12:49:05;;;;;;;6.57;4.32;;;21.60;75.00;;;;;;5095460;28;20040;-72
2021/07/15 12:51:43;;;;;;;6.50;4.65;;;21.60;74.90;;;;;;5095588;28;20040;-72
2021/07/15 12:54:19;;;;;;;7.45;3.95;;;21.60;74.90;;;;;;5094729;28;20336;-73
2021/07/15 12:56:45;;;;;;;6.25;4.30;;;21.60;74.90;;;;;;5095467;28;20036;-73
2021/07/15 12:59:12;;;;;;;6.82;4.43;;;21.60;74.80;;;;;;5095462;28;20038;-73
2021/07/15 13:01:42;;;;;;;5.53;4.30;;;21.60;74.80;;;;;;5095804;28;20047;-72
2021/07/15 13:04:19;;;;;;;6.05;4.10;;;21.60;74.70;;;;;;5095526;28;20129;-73